Time;durP1;ratioP1;P1;durP2;ratioP2;P2;SDS_P1;SDS_P2;PMS_P1;PMS_P2;Temp;Humidity;BMP_temperature;BMP_pressure;BME280_temperature;BME280_humidity;BME280_pressure;Samples;Min_cycle;Max_cycle;Signal;HPM_P1;HPM_P2
2022/05/12 00:01:20;;;;;;;5.25;1.63;;;;;;;19.48;41.25;101319.94;5076326;28;20032;-75
2022/05/12 00:03:45;;;;;;;8.25;1.88;;;;;;;19.47;41.16;101323.91;5076679;28;20031;-76
2022/05/12 00:06:11;;;;;;;4.70;1.50;;;;;;;19.44;41.47;101334.91;5076171;28;20033;-84
2022/05/12 00:08:37;;;;;;;3.35;1.50;;;;;;;19.48;41.52;101327.47;5076269;28;20062;-76
2022/05/12 00:11:03;;;;;;;4.93;1.90;;;;;;;19.50;41.43;101325.97;5076452;28;20058;-76
2022/05/12 00:13:29;;;;;;;5.40;1.75;;;;;;;19.57;41.49;101322.56;5076599;28;20532;-87
2022/05/12 00:15:55;;;;;;;6.47;2.05;;;;;;;19.49;41.57;101317.97;5075970;28;20127;-75
2022/05/12 00:18:20;;;;;;;3.80;1.45;;;;;;;19.65;41.23;101316.84;5076049;28;20130;-76
2022/05/12 00:20:46;;;;;;;6.90;2.30;;;;;;;19.83;40.91;101319.22;5075977;28;20116;-75
2022/05/12 00:23:18;;;;;;;6.68;1.85;;;;;;;19.90;40.85;101320.19;5076263;28;20036;-75
2022/05/12 00:25:47;;;;;;;6.38;1.88;;;;;;;19.90;40.85;101325.72;5074819;28;20055;-75
2022/05/12 00:28:14;;;;;;;15.70;3.03;;;;;;;19.98;40.57;101332.22;5075769;28;20040;-75
2022/05/12 00:30:43;;;;;;;8.63;1.92;;;;;;;20.02;40.70;101326.75;5075524;28;20052;-77
2022/05/12 00:33:08;;;;;;;5.45;1.75;;;;;;;19.80;41.28;101325.47;5075930;28;20060;-76
2022/05/12 00:35:35;;;;;;;4.93;1.65;;;;;;;19.90;40.67;101331.28;5075677;28;20039;-87
2022/05/12 00:38:02;;;;;;;6.18;1.80;;;;;;;19.64;41.56;101334.63;5075962;28;20073;-76
2022/05/12 00:40:28;;;;;;;8.45;1.90;;;;;;;19.56;41.62;101337.56;5075675;28;20028;-86
2022/05/12 00:42:59;;;;;;;4.57;1.85;;;;;;;19.68;41.54;101331.94;5075532;28;20115;-75
2022/05/12 00:45:27;;;;;;;9.95;1.65;;;;;;;19.45;42.06;101334.53;5075579;28;20032;-75
2022/05/12 00:47:52;;;;;;;6.35;1.83;;;;;;;19.48;42.03;101330.22;5075488;28;20078;-78
2022/05/12 00:50:21;;;;;;;10.60;2.08;;;;;;;19.52;41.64;101331.94;5075458;28;20036;-75
2022/05/12 00:52:47;;;;;;;6.80;1.90;;;;;;;19.51;41.78;101335.09;5075521;28;20090;-88
2022/05/12 00:55:16;;;;;;;5.57;2.15;;;;;;;19.50;41.91;101334.28;5073714;28;20390;-76
2022/05/12 00:57:51;;;;;;;8.32;2.20;;;;;;;19.55;41.74;101336.75;5073199;28;20028;-77
2022/05/12 01:00:19;;;;;;;6.72;1.42;;;;;;;19.44;41.95;101335.72;5075324;28;20025;-76
2022/05/12 01:02:49;;;;;;;6.57;2.17;;;;;;;19.50;41.69;101333.47;5073886;28;20059;-76
2022/05/12 01:05:16;;;;;;;;;;;;;;;19.36;41.83;101333.94;5074687;28;20467;-85
2022/05/12 01:07:41;;;;;;;9.27;1.60;;;;;;;19.51;41.11;101326.75;5075206;28;19922;-75
2022/05/12 01:10:09;;;;;;;4.72;1.77;;;;;;;19.49;41.29;101331.84;5075237;28;20021;-86
2022/05/12 01:12:38;;;;;;;4.18;1.65;;;;;;;19.50;41.39;101345.38;5075076;28;20470;-75
2022/05/12 01:15:06;;;;;;;10.88;2.53;;;;;;;19.39;41.41;101334.00;5075460;28;20031;-76
2022/05/12 01:17:31;;;;;;;5.15;1.45;;;;;;;19.41;41.30;101339.19;5075056;28;20024;-76
2022/05/12 01:19:57;;;;;;;11.93;2.42;;;;;;;19.37;41.23;101341.06;5074779;28;20031;-76
2022/05/12 01:23:10;;;;;;;4.57;1.95;;;;;;;19.34;41.38;101347.31;5074957;28;20032;-75
2022/05/12 01:25:36;;;;;;;8.75;1.73;;;;;;;19.34;41.17;101347.31;5043500;28;20089;-76
2022/05/12 01:28:02;;;;;;;7.70;1.88;;;;;;;19.29;41.12;101348.41;5074388;28;20052;-77
2022/05/12 01:30:28;;;;;;;5.68;2.40;;;;;;;19.32;41.06;101356.00;5074767;28;20060;-75
2022/05/12 01:32:53;;;;;;;5.43;1.95;;;;;;;19.29;41.09;101353.16;5074810;28;20029;-76
2022/05/12 01:35:22;;;;;;;10.40;2.22;;;;;;;19.12;41.47;101348.75;5074779;28;20024;-76
2022/05/12 01:37:48;;;;;;;6.63;1.77;;;;;;;19.05;41.60;101352.16;5074466;28;20032;-75
2022/05/12 01:40:16;;;;;;;6.45;1.70;;;;;;;18.95;41.91;101351.84;5074489;28;20020;-75
2022/05/12 01:42:42;;;;;;;6.85;2.40;;;;;;;19.05;41.54;101356.88;5073987;28;20035;-76
2022/05/12 01:45:09;;;;;;;8.68;2.30;;;;;;;19.03;41.40;101357.22;5057759;28;20021;-76
2022/05/12 01:47:36;;;;;;;7.45;1.95;;;;;;;19.03;41.36;101348.91;5054630;28;20155;-86
2022/05/12 01:50:03;;;;;;;8.25;2.30;;;;;;;18.96;41.43;101362.56;5054181;28;20028;-76
2022/05/12 01:52:28;;;;;;;9.63;2.10;;;;;;;18.90;41.61;101365.97;5053050;28;20028;-75
2022/05/12 01:54:54;;;;;;;5.28;1.80;;;;;;;18.71;41.82;101361.88;5054125;28;20032;-76
2022/05/12 01:57:22;;;;;;;11.63;2.80;;;;;;;18.71;41.92;101366.63;5054055;28;20071;-76
2022/05/12 01:59:49;;;;;;;6.22;1.73;;;;;;;18.68;41.87;101364.56;5054061;28;20082;-76
2022/05/12 02:02:14;;;;;;;5.05;1.75;;;;;;;18.81;41.88;101360.56;5053927;28;20112;-75
2022/05/12 02:04:41;;;;;;;6.90;1.80;;;;;;;18.65;42.09;101363.25;5053926;28;20104;-75
2022/05/12 02:07:07;;;;;;;11.30;2.70;;;;;;;18.51;42.24;101366.47;5053955;28;20025;-75
2022/05/12 02:09:33;;;;;;;10.30;2.20;;;;;;;18.43;42.41;101366.56;5052730;28;20021;-75
2022/05/12 02:12:01;;;;;;;7.00;1.58;;;;;;;18.55;41.97;101361.00;5053762;28;20044;-76
2022/05/12 02:14:27;;;;;;;6.13;2.15;;;;;;;18.53;42.28;101364.13;5053719;28;20036;-78
2022/05/12 02:16:53;;;;;;;8.30;1.75;;;;;;;18.55;42.07;101366.53;5053864;28;20104;-75
2022/05/12 02:19:18;;;;;;;3.50;1.13;;;;;;;18.41;42.12;101371.66;5053956;28;20017;-75
2022/05/12 02:21:44;;;;;;;5.32;1.70;;;;;;;18.38;42.14;101372.38;5053453;28;20036;-75
2022/05/12 02:24:10;;;;;;;7.25;1.70;;;;;;;18.39;42.24;101380.31;5052192;28;20033;-75
2022/05/12 02:26:35;;;;;;;8.95;2.17;;;;;;;18.34;42.15;101376.97;5052194;28;20024;-87
2022/05/12 02:29:02;;;;;;;6.55;2.25;;;;;;;18.28;42.17;101390.25;5053311;28;20102;-87
2022/05/12 02:31:27;;;;;;;12.32;2.03;;;;;;;18.26;42.02;101379.53;5053459;28;20029;-75
2022/05/12 02:33:53;;;;;;;3.78;1.63;;;;;;;18.34;41.87;101383.31;5053578;28;20028;-76
2022/05/12 02:36:19;;;;;;;5.72;1.98;;;;;;;18.24;42.12;101389.34;5053312;28;20369;-76
2022/05/12 02:38:44;;;;;;;5.18;1.30;;;;;;;18.20;42.09;101392.00;5053420;28;20453;-76
2022/05/12 02:41:10;;;;;;;4.97;1.98;;;;;;;18.25;41.99;101390.97;5053517;28;20395;-76
2022/05/12 02:43:37;;;;;;;9.02;2.13;;;;;;;18.23;41.96;101396.84;5053263;28;20534;-75
2022/05/12 02:46:06;;;;;;;4.28;1.70;;;;;;;18.24;41.99;101403.97;5053446;28;20044;-75
2022/05/12 02:48:42;;;;;;;5.55;1.52;;;;;;;18.20;41.86;101394.75;5052006;28;20399;-76
2022/05/12 02:51:08;;;;;;;7.72;1.80;;;;;;;18.17;42.08;101406.53;5053086;28;20028;-75
2022/05/12 02:53:35;;;;;;;3.67;1.48;;;;;;;18.16;41.76;101402.16;5052930;28;20047;-76
2022/05/12 02:56:01;;;;;;;8.55;2.00;;;;;;;18.15;42.08;101400.56;5051788;28;20021;-76
2022/05/12 02:58:28;;;;;;;7.10;1.85;;;;;;;18.13;41.97;101402.03;5052918;28;20036;-87
2022/05/12 03:00:55;;;;;;;4.15;1.50;;;;;;;18.08;42.17;101405.06;5052855;28;20086;-78
2022/05/12 03:03:20;;;;;;;5.70;1.80;;;;;;;18.09;42.15;101415.75;5052017;28;20618;-76
2022/05/12 03:05:46;;;;;;;5.03;2.55;;;;;;;18.01;42.27;101405.63;5053010;28;20055;-75
2022/05/12 03:08:12;;;;;;;6.70;1.85;;;;;;;17.99;42.33;101405.19;5052975;28;20025;-76
2022/05/12 03:10:38;;;;;;;5.55;2.03;;;;;;;18.00;42.21;101415.09;5052853;28;20021;-76
2022/05/12 03:13:05;;;;;;;5.07;1.90;;;;;;;17.99;42.08;101407.94;5052653;28;20025;-86
2022/05/12 03:15:31;;;;;;;6.72;1.63;;;;;;;17.93;42.21;101407.38;5052884;28;20112;-75
2022/05/12 03:17:57;;;;;;;5.72;1.85;;;;;;;17.92;42.26;101410.50;5052812;28;20024;-76
2022/05/12 03:20:25;;;;;;;5.95;1.48;;;;;;;17.89;42.29;101408.41;5051133;28;20060;-75
2022/05/12 03:22:51;;;;;;;8.70;2.40;;;;;;;17.86;42.19;101417.41;5052440;28;20483;-76
2022/05/12 03:25:19;;;;;;;9.68;2.63;;;;;;;17.82;42.31;101419.22;5052571;28;20116;-76
2022/05/12 03:27:45;;;;;;;5.97;2.10;;;;;;;17.83;42.34;101420.84;5052302;28;20104;-87
2022/05/12 03:30:16;;;;;;;9.02;2.60;;;;;;;17.78;42.19;101426.63;5052655;28;20072;-77
2022/05/12 03:32:41;;;;;;;8.15;1.98;;;;;;;17.80;42.15;101432.59;5052754;28;20052;-76
2022/05/12 03:35:09;;;;;;;8.40;2.13;;;;;;;17.72;42.41;101423.25;5052697;28;20025;-75
2022/05/12 03:37:35;;;;;;;14.73;3.22;;;;;;;17.72;42.43;101418.53;5052317;28;20025;-75
2022/05/12 03:40:00;;;;;;;7.10;2.50;;;;;;;17.74;42.31;101426.47;5052543;28;20483;-86
2022/05/12 03:42:26;;;;;;;10.40;2.65;;;;;;;17.77;42.39;101419.47;5052292;28;20033;-86
2022/05/12 03:44:55;;;;;;;7.38;2.50;;;;;;;17.77;42.37;101413.94;5052486;28;20028;-76
2022/05/12 03:47:35;;;;;;;8.38;2.53;;;;;;;17.79;42.36;101414.41;5052253;28;20036;-76
2022/05/12 03:50:03;;;;;;;;;;;;;;;17.59;43.01;101408.59;5052860;28;20035;-76
2022/05/12 03:52:30;;;;;;;7.45;2.50;;;;;;;17.60;43.12;101417.69;5052675;28;19960;-76
2022/05/12 03:54:57;;;;;;;5.88;2.28;;;;;;;17.69;42.67;101416.44;5052484;28;20029;-83
2022/05/12 03:57:24;;;;;;;4.10;2.13;;;;;;;17.71;42.66;101421.66;5052389;28;20033;-76
2022/05/12 03:59:50;;;;;;;8.80;2.65;;;;;;;17.54;42.95;101417.13;5052283;28;20033;-76
2022/05/12 04:02:18;;;;;;;8.35;2.88;;;;;;;17.63;42.68;101419.78;5052209;28;20033;-86
2022/05/12 04:04:46;;;;;;;11.45;3.00;;;;;;;17.64;42.78;101432.44;5052301;28;20033;-76
2022/05/12 04:07:13;;;;;;;8.63;3.28;;;;;;;17.58;42.71;101428.28;5052310;28;20045;-77
2022/05/12 04:09:39;;;;;;;10.75;3.53;;;;;;;17.73;42.59;101430.41;5052252;28;20039;-76
2022/05/12 04:12:09;;;;;;;12.35;2.63;;;;;;;17.83;42.28;101437.41;5052188;28;20026;-86
2022/05/12 04:14:36;;;;;;;10.82;2.78;;;;;;;17.89;42.09;101427.75;5052307;28;20024;-75
2022/05/12 04:17:01;;;;;;;7.82;2.22;;;;;;;17.92;42.02;101427.06;5052209;28;20033;-86
2022/05/12 04:19:28;;;;;;;9.80;2.38;;;;;;;17.87;42.05;101419.81;5052186;28;20024;-75
2022/05/12 04:21:54;;;;;;;14.93;3.03;;;;;;;17.87;41.92;101427.28;5052272;28;20513;-85
2022/05/12 04:24:20;;;;;;;8.40;2.20;;;;;;;17.84;41.95;101434.34;5052145;28;20045;-76
2022/05/12 04:26:46;;;;;;;7.90;2.17;;;;;;;17.79;41.92;101433.75;5052080;28;20033;-76
2022/05/12 04:29:13;;;;;;;11.65;2.83;;;;;;;17.67;42.04;101448.31;5051586;28;20060;-75
2022/05/12 04:31:40;;;;;;;10.93;3.67;;;;;;;17.69;41.94;101440.50;5051948;28;20029;-76
2022/05/12 04:36:51;;;;;;;11.10;3.00;;;;;;;17.31;42.72;101446.31;5055713;28;20090;-77
2022/05/12 04:39:17;;;;;;;13.45;3.83;;;;;;;17.31;42.66;101452.66;5055606;28;20053;-76
2022/05/12 04:41:43;;;;;;;10.95;2.33;;;;;;;17.28;42.64;101456.06;5055442;28;20420;-76
2022/05/12 04:44:10;;;;;;;17.92;3.70;;;;;;;17.30;42.71;101458.50;5055607;28;20029;-77
2022/05/12 04:46:37;;;;;;;16.67;3.58;;;;;;;17.28;42.66;101452.50;5055435;28;20116;-75
2022/05/12 04:49:05;;;;;;;14.75;3.72;;;;;;;17.27;42.73;101453.66;5055496;28;20033;-75
2022/05/12 04:51:31;;;;;;;9.68;2.47;;;;;;;17.31;42.51;101449.88;5055253;28;20025;-77
2022/05/12 04:54:01;;;;;;;13.82;4.47;;;;;;;17.28;42.78;101447.78;5054067;28;20548;-75
2022/05/12 04:56:27;;;;;;;10.82;3.28;;;;;;;17.35;42.50;101447.22;5054215;28;20079;-74
2022/05/12 04:58:53;;;;;;;12.50;3.13;;;;;;;17.34;42.69;101438.16;5055261;28;20028;-74
2022/05/12 05:01:19;;;;;;;15.63;4.63;;;;;;;17.37;42.60;101451.25;5055104;28;20033;-76
2022/05/12 05:03:45;;;;;;;14.82;3.72;;;;;;;17.31;42.69;101443.56;5054745;28;20491;-75
2022/05/12 05:06:11;;;;;;;13.57;3.00;;;;;;;17.35;42.61;101444.47;5054887;28;20025;-85
2022/05/12 05:08:37;;;;;;;19.27;3.80;;;;;;;17.30;42.71;101444.69;5055162;28;20027;-75
2022/05/12 05:11:06;;;;;;;12.35;3.00;;;;;;;17.34;42.61;101448.38;5053718;28;20115;-75
2022/05/12 05:13:33;;;;;;;11.25;3.00;;;;;;;17.31;42.56;101451.84;5055096;28;20021;-75
2022/05/12 05:15:59;;;;;;;15.70;3.10;;;;;;;17.27;42.74;101457.22;5053962;28;20143;-76
2022/05/12 05:18:25;;;;;;;20.00;4.22;;;;;;;17.25;42.84;101451.25;5053695;28;20028;-75
2022/05/12 05:20:51;;;;;;;16.20;3.65;;;;;;;17.18;43.05;101454.56;5054953;28;20025;-75
2022/05/12 05:23:21;;;;;;;13.95;3.45;;;;;;;17.35;42.81;101458.28;5054892;28;20540;-76
2022/05/12 05:25:51;;;;;;;21.77;3.75;;;;;;;17.25;43.04;101458.72;5055014;28;20027;-86
2022/05/12 05:28:17;;;;;;;13.93;2.60;;;;;;;17.28;42.88;101464.34;5054421;28;20041;-74
2022/05/12 05:30:43;;;;;;;13.02;4.45;;;;;;;17.44;42.69;101461.75;5053185;28;20036;-75
2022/05/12 05:33:10;;;;;;;14.93;3.33;;;;;;;17.53;42.94;101467.19;5054591;28;20021;-85
2022/05/12 05:35:36;;;;;;;12.02;3.88;;;;;;;17.72;42.57;101467.47;5054693;28;20113;-75
2022/05/12 05:38:03;;;;;;;18.98;4.68;;;;;;;17.83;42.47;101452.03;5054581;28;20491;-75
2022/05/12 05:40:31;;;;;;;18.98;3.70;;;;;;;17.91;42.92;101456.69;5054400;28;20021;-75
2022/05/12 05:42:57;;;;;;;17.58;4.35;;;;;;;18.05;42.51;101459.06;5052873;28;20191;-84
2022/05/12 05:45:24;;;;;;;14.48;3.45;;;;;;;18.02;42.58;101462.53;5053630;28;20036;-76
2022/05/12 05:47:57;;;;;;;25.45;4.60;;;;;;;18.02;42.64;101466.13;5053180;28;20046;-76
2022/05/12 05:50:27;;;;;;;22.83;4.60;;;;;;;18.25;41.97;101462.88;5053076;28;20527;-76
2022/05/12 05:55:37;;;;;;;11.88;3.60;;;;;;;18.30;42.00;101469.00;5054262;28;20090;-75
2022/05/12 05:58:04;;;;;;;11.38;3.45;;;;;;;18.34;42.09;101477.38;5052905;28;20033;-76
2022/05/12 06:00:36;;;;;;;16.65;4.53;;;;;;;18.33;42.01;101472.22;5054465;28;20025;-87
2022/05/12 06:03:02;;;;;;;10.68;2.95;;;;;;;18.21;42.16;101479.38;5054307;28;20400;-75
2022/05/12 06:05:28;;;;;;;8.95;3.28;;;;;;;18.28;42.26;101487.06;5054113;28;20028;-75
2022/05/12 06:07:55;;;;;;;17.45;4.15;;;;;;;18.34;41.89;101482.13;5052868;28;20472;-76
2022/05/12 06:10:21;;;;;;;18.92;4.47;;;;;;;18.21;42.26;101493.22;5054235;28;20087;-86
2022/05/12 06:12:49;;;;;;;13.00;3.63;;;;;;;18.25;42.33;101490.53;5054142;28;20088;-75
2022/05/12 06:15:15;;;;;;;13.95;2.80;;;;;;;18.17;42.43;101511.63;5054060;28;20036;-76
2022/05/12 06:17:41;;;;;;;10.45;3.15;;;;;;;18.27;42.25;101496.53;5053993;28;20063;-87
2022/05/12 06:20:10;;;;;;;26.02;5.03;;;;;;;18.36;42.14;101501.94;5053694;28;20029;-86
2022/05/12 06:22:36;;;;;;;23.55;4.88;;;;;;;18.30;42.37;101507.72;5053028;28;20123;-76
2022/05/12 06:25:06;;;;;;;16.75;3.35;;;;;;;18.40;42.37;101489.84;5053583;28;20146;-75
2022/05/12 06:27:32;;;;;;;11.73;2.90;;;;;;;18.54;42.05;101493.03;5053607;28;20033;-76
2022/05/12 06:29:58;;;;;;;17.27;4.32;;;;;;;18.64;41.77;101507.56;5061895;28;20054;-76
2022/05/12 06:32:23;;;;;;;15.48;4.15;;;;;;;18.66;41.82;101505.25;5073553;28;20425;-76
2022/05/12 06:34:49;;;;;;;10.15;3.83;;;;;;;18.60;42.21;101501.91;5071393;28;20048;-77
2022/05/12 06:37:16;;;;;;;35.33;6.35;;;;;;;18.66;42.16;101510.78;5072591;28;20028;-77
2022/05/12 06:39:42;;;;;;;18.85;4.40;;;;;;;18.69;42.06;101515.66;5073602;28;20070;-76
2022/05/12 06:42:08;;;;;;;15.10;3.97;;;;;;;18.68;42.28;101517.63;5073516;28;20140;-77
2022/05/12 06:44:34;;;;;;;10.77;3.20;;;;;;;18.66;42.36;101522.69;5069693;28;20534;-77
2022/05/12 06:47:02;;;;;;;21.83;4.07;;;;;;;18.67;42.37;101517.97;5061534;28;20091;-77
2022/05/12 06:49:28;;;;;;;19.90;4.65;;;;;;;18.75;41.73;101520.59;5061571;28;20024;-75
2022/05/12 06:51:55;;;;;;;15.63;4.68;;;;;;;18.76;42.30;101524.19;5065853;28;20047;-76
2022/05/12 06:54:22;;;;;;;15.27;3.13;;;;;;;18.81;42.02;101519.19;5061689;28;20029;-76
2022/05/12 06:56:48;;;;;;;13.25;2.72;;;;;;;18.96;41.74;101514.88;5058257;28;20051;-77
2022/05/12 06:59:14;;;;;;;27.45;3.95;;;;;;;19.06;41.63;101530.22;5068180;28;20478;-77
2022/05/12 07:01:39;;;;;;;22.67;4.55;;;;;;;19.06;41.92;101525.47;5062472;28;20039;-75
2022/05/12 07:04:05;;;;;;;14.35;5.00;;;;;;;19.14;41.76;101518.16;5061757;28;20031;-80
2022/05/12 07:06:31;;;;;;;11.88;3.50;;;;;;;19.24;41.50;101523.19;5064988;28;20454;-76
2022/05/12 07:08:57;;;;;;;13.60;2.90;;;;;;;19.41;41.34;101514.56;5072453;28;20035;-78
2022/05/12 07:11:23;;;;;;;23.02;4.82;;;;;;;19.43;41.54;101516.22;5072546;28;20033;-76
2022/05/12 07:13:48;;;;;;;31.27;6.38;;;;;;;19.34;41.32;101511.59;5072797;28;20429;-77
2022/05/12 07:16:14;;;;;;;14.50;3.40;;;;;;;19.29;41.17;101503.56;5072145;28;20033;-77
2022/05/12 07:18:40;;;;;;;14.68;2.80;;;;;;;19.33;41.35;101500.88;5072049;28;20025;-86
2022/05/12 07:26:39;;;;;;;15.55;3.53;;;;;;;19.68;40.93;101504.63;5062279;28;20441;-78
2022/05/12 07:29:15;;;;;;;16.60;3.80;;;;;;;19.74;41.13;101501.63;5062162;28;20041;-84
2022/05/12 07:31:41;;;;;;;13.50;3.95;;;;;;;19.94;40.71;101504.09;5063574;28;20580;-78
2022/05/12 07:34:07;;;;;;;10.65;2.30;;;;;;;20.05;40.61;101500.81;5061219;28;20024;-77
2022/05/12 07:36:37;;;;;;;12.85;3.17;;;;;;;20.09;40.65;101499.72;5063111;28;20025;-77
2022/05/12 07:39:04;;;;;;;9.07;2.53;;;;;;;19.98;41.00;101493.09;5059191;28;20027;-77
2022/05/12 07:41:30;;;;;;;13.48;3.08;;;;;;;20.25;40.23;101496.91;5065436;28;20078;-78
2022/05/12 07:43:56;;;;;;;13.20;3.40;;;;;;;20.42;39.94;101491.00;5063698;28;20028;-77
2022/05/12 07:46:25;;;;;;;14.57;3.40;;;;;;;20.60;39.73;101490.59;5062370;28;20022;-78
2022/05/12 07:48:51;;;;;;;10.52;2.47;;;;;;;20.65;39.46;101487.56;5063184;28;20368;-77
2022/05/12 07:51:18;;;;;;;11.07;3.10;;;;;;;20.87;39.16;101481.28;5062730;28;20056;-77
2022/05/12 07:53:47;;;;;;;23.23;4.40;;;;;;;20.58;39.36;101481.84;5060665;28;20513;-80
2022/05/12 07:56:16;;;;;;;9.43;3.53;;;;;;;20.85;39.06;101493.91;5062793;28;20137;-88
2022/05/12 07:58:42;;;;;;;20.27;3.78;;;;;;;20.99;38.91;101500.56;5062378;28;20024;-77
2022/05/12 08:01:09;;;;;;;14.10;3.35;;;;;;;21.06;38.67;101495.16;5060859;28;20501;-87
2022/05/12 08:03:34;;;;;;;10.20;2.53;;;;;;;21.05;38.57;101489.97;5063633;28;20043;-76
2022/05/12 08:06:01;;;;;;;15.60;3.25;;;;;;;21.13;38.36;101490.94;5060484;28;20542;-76
2022/05/12 08:08:27;;;;;;;12.68;3.40;;;;;;;21.10;38.65;101488.88;5064805;28;20017;-86
2022/05/12 08:10:52;;;;;;;13.35;3.28;;;;;;;21.41;38.24;101491.50;5065461;28;20058;-83
2022/05/12 08:13:18;;;;;;;18.23;3.72;;;;;;;21.49;38.40;101492.44;5069958;28;20049;-84
2022/05/12 08:15:46;;;;;;;12.27;3.20;;;;;;;21.64;37.95;101491.53;5076805;28;20028;-85
2022/05/12 08:18:12;;;;;;;15.07;3.75;;;;;;;21.71;38.09;101488.88;5076730;28;20024;-82
2022/05/12 08:20:38;;;;;;;15.77;4.18;;;;;;;21.52;37.98;101475.81;5074906;28;20031;-87
2022/05/12 08:23:05;;;;;;;8.68;3.22;;;;;;;21.36;37.82;101472.34;5074443;28;20028;-75
2022/05/12 08:25:31;;;;;;;10.05;2.78;;;;;;;21.10;37.78;101459.13;5075903;28;20032;-75
2022/05/12 08:27:56;;;;;;;17.13;3.38;;;;;;;21.36;37.64;101466.78;5074455;28;20048;-75
2022/05/12 08:30:22;;;;;;;22.80;3.90;;;;;;;21.46;37.58;101473.72;5075690;28;20024;-76
2022/05/12 08:32:48;;;;;;;25.67;5.43;;;;;;;21.52;37.49;101467.47;5075622;28;20032;-75
2022/05/12 08:35:14;;;;;;;8.98;2.80;;;;;;;21.88;37.17;101468.09;5075508;28;20024;-84
2022/05/12 08:37:40;;;;;;;10.38;3.22;;;;;;;22.08;37.17;101475.22;5075258;28;20033;-75
2022/05/12 08:40:11;;;;;;;9.15;2.47;;;;;;;21.50;38.06;101472.63;5074500;28;20035;-76
2022/05/12 08:42:46;;;;;;;9.15;2.30;;;;;;;21.72;37.47;101473.00;5073522;28;20039;-76
2022/05/12 08:45:14;;;;;;;20.60;4.05;;;;;;;21.90;37.25;101479.66;5075068;28;20410;-77
2022/05/12 08:47:47;;;;;;;14.30;3.17;;;;;;;22.08;36.89;101478.00;5075253;28;20523;-77
2022/05/12 08:50:27;;;;;;;7.38;2.67;;;;;;;22.11;37.15;101485.59;5075034;28;20020;-77
2022/05/12 08:52:55;;;;;;;10.57;2.78;;;;;;;22.33;37.03;101480.34;5075077;28;20024;-77
2022/05/12 08:55:29;;;;;;;9.38;2.45;;;;;;;22.52;36.83;101477.47;5075216;28;20025;-77
2022/05/12 08:58:04;;;;;;;5.65;2.33;;;;;;;22.67;36.44;101479.25;5073792;28;20482;-77
2022/05/12 09:00:47;;;;;;;8.93;2.65;;;;;;;22.69;36.20;101479.69;5075175;28;20020;-77
2022/05/12 09:03:50;;;;;;;6.85;2.10;;;;;;;22.67;36.70;101479.25;5074901;28;20063;-77
2022/05/12 09:06:20;;;;;;;7.10;2.33;;;;;;;23.05;36.09;101462.59;5074915;28;20032;-77
2022/05/12 09:08:59;;;;;;;8.90;2.25;;;;;;;23.09;35.78;101466.25;5075069;28;20103;-77
2022/05/12 09:11:44;;;;;;;13.13;3.83;;;;;;;23.32;35.53;101469.69;5074963;28;20236;-77
2022/05/12 09:14:24;;;;;;;17.10;4.05;;;;;;;23.38;35.37;101456.22;5072506;28;20104;-78
2022/05/12 09:16:52;;;;;;;10.85;2.47;;;;;;;22.65;35.74;101467.66;5073533;28;20450;-77
2022/05/12 09:19:19;;;;;;;8.38;2.20;;;;;;;23.34;35.04;101464.53;5074133;28;20398;-77
2022/05/12 09:21:46;;;;;;;19.38;3.70;;;;;;;23.51;34.94;101451.97;5075029;28;20036;-77
2022/05/12 09:24:12;;;;;;;12.88;2.17;;;;;;;23.75;34.43;101459.78;5074472;28;20060;-82
2022/05/12 09:26:42;;;;;;;13.55;3.00;;;;;;;23.22;35.53;101457.25;5074511;28;20542;-77
2022/05/12 09:29:18;;;;;;;7.63;2.55;;;;;;;23.54;34.07;101451.97;5073971;28;20132;-77
2022/05/12 09:31:54;;;;;;;8.38;1.95;;;;;;;23.76;34.24;101464.16;5074473;28;20475;-77
2022/05/12 09:34:33;;;;;;;8.13;1.90;;;;;;;23.60;33.36;101455.25;5073304;28;20021;-77
2022/05/12 09:37:21;;;;;;;15.95;3.80;;;;;;;23.92;33.02;101454.72;5074300;28;20029;-78
2022/05/12 09:39:58;;;;;;;13.65;2.70;;;;;;;23.97;33.00;101446.78;5074481;28;20035;-77
2022/05/12 09:42:27;;;;;;;6.55;2.25;;;;;;;24.23;32.52;101442.97;5071376;28;20389;-77
2022/05/12 09:45:02;;;;;;;11.47;2.80;;;;;;;24.20;31.49;101440.16;5074360;28;20039;-77
2022/05/12 09:47:30;;;;;;;12.50;2.40;;;;;;;24.26;31.93;101447.00;5074204;28;20538;-78
2022/05/12 09:50:20;;;;;;;8.07;2.63;;;;;;;24.41;31.46;101442.28;5069116;28;20691;-77
2022/05/12 09:52:55;;;;;;;5.97;2.25;;;;;;;24.14;31.72;101439.72;5070368;28;20375;-77
2022/05/12 09:55:30;;;;;;;11.15;2.70;;;;;;;24.24;31.70;101447.34;5073888;28;20467;-78
2022/05/12 09:58:01;;;;;;;10.32;2.50;;;;;;;23.98;31.97;101444.81;5074051;28;20034;-77
2022/05/12 10:00:40;;;;;;;7.63;2.35;;;;;;;24.06;31.43;101440.88;5074071;28;20021;-77
2022/05/12 10:09:13;;;;;;;15.77;3.13;;;;;;;24.54;31.29;101432.41;5073765;28;20078;-77
2022/05/12 10:12:19;;;;;;;8.30;2.67;;;;;;;24.72;30.63;101419.31;5073860;28;20032;-77
2022/05/12 10:14:47;;;;;;;9.48;2.17;;;;;;;24.63;31.17;101414.06;5052372;28;20372;-77
2022/05/12 10:17:41;;;;;;;13.40;2.65;;;;;;;24.89;30.40;101414.97;5053561;28;20055;-79
2022/05/12 10:20:11;;;;;;;6.03;1.70;;;;;;;25.02;30.36;101415.41;5047527;28;20060;-76
2022/05/12 10:22:43;;;;;;;9.75;2.63;;;;;;;24.97;30.65;101415.78;5052345;28;20048;-76
2022/05/12 10:25:17;;;;;;;4.95;2.22;;;;;;;25.28;30.76;101408.69;5052262;28;20052;-76
2022/05/12 10:27:50;;;;;;;7.00;1.90;;;;;;;25.61;30.93;101405.50;5053355;28;20124;-76
2022/05/12 10:30:39;;;;;;;5.50;1.75;;;;;;;25.41;30.69;101407.91;5052492;28;20029;-76
2022/05/12 10:33:12;;;;;;;15.15;2.97;;;;;;;25.47;30.06;101411.13;5053296;28;20074;-76
2022/05/12 10:35:52;;;;;;;8.93;2.35;;;;;;;25.26;30.01;101403.50;5068387;28;20052;-76
2022/05/12 10:38:45;;;;;;;8.10;2.05;;;;;;;25.28;30.07;101403.91;5071641;28;20024;-76
2022/05/12 10:41:21;;;;;;;14.23;2.28;;;;;;;25.05;30.37;101398.66;5071803;28;20078;-76
2022/05/12 10:44:08;;;;;;;6.32;1.98;;;;;;;24.99;30.33;101388.25;5071528;28;20082;-77
2022/05/12 10:47:22;;;;;;;8.80;2.28;;;;;;;25.10;30.61;101400.28;5073096;28;20055;-77
2022/05/12 10:50:08;;;;;;;15.63;2.65;;;;;;;25.04;30.63;101377.50;4994411;28;20022;-77
2022/05/12 10:52:37;;;;;;;6.80;2.03;;;;;;;24.78;31.45;101381.38;5010433;28;20037;-77
2022/05/12 10:55:36;;;;;;;8.45;1.90;;;;;;;25.39;30.52;101376.75;5047580;28;20033;-77
2022/05/12 10:58:07;;;;;;;8.07;2.28;;;;;;;25.40;30.82;101369.97;5071550;28;20580;-77
2022/05/12 11:00:56;;;;;;;10.20;1.83;;;;;;;25.61;30.29;101365.53;5072884;28;20117;-77
2022/05/12 11:03:27;;;;;;;7.05;1.88;;;;;;;25.96;29.46;101371.13;5072775;28;20125;-77
2022/05/12 11:05:59;;;;;;;7.00;1.70;;;;;;;25.79;29.71;101363.56;5072791;28;20029;-77
2022/05/12 11:08:34;;;;;;;4.45;1.80;;;;;;;25.90;29.54;101372.72;5072729;28;20020;-77
2022/05/12 11:11:11;;;;;;;7.25;1.80;;;;;;;26.09;29.24;101367.91;5072817;28;20029;-77
2022/05/12 11:13:46;;;;;;;5.43;1.65;;;;;;;25.69;28.97;101369.91;5071001;28;20028;-77
2022/05/12 11:16:17;;;;;;;5.03;1.80;;;;;;;25.76;28.91;101369.94;5072671;28;20028;-77
2022/05/12 11:19:07;;;;;;;4.45;1.30;;;;;;;25.82;28.73;101371.13;5072617;28;20070;-77
2022/05/12 11:21:42;;;;;;;10.82;2.45;;;;;;;25.58;28.94;101361.53;5072319;28;20052;-77
2022/05/12 11:24:24;;;;;;;6.78;1.77;;;;;;;25.29;28.86;101366.34;5072587;28;20024;-77
2022/05/12 11:27:20;;;;;;;5.65;1.38;;;;;;;25.49;28.84;101357.56;5072434;28;20020;-77
2022/05/12 11:30:23;;;;;;;8.35;2.30;;;;;;;25.73;28.50;101359.56;5072487;28;20063;-77
2022/05/12 11:33:16;;;;;;;7.93;2.25;;;;;;;25.80;28.69;101362.34;5072306;28;20032;-77
2022/05/12 11:35:45;;;;;;;7.97;2.70;;;;;;;25.84;28.85;101365.13;5061876;28;20402;-78
2022/05/12 11:38:39;;;;;;;4.75;1.70;;;;;;;25.66;28.95;101356.75;5072413;28;20020;-77
2022/05/12 11:41:38;;;;;;;4.95;1.95;;;;;;;25.59;29.33;101349.16;5071935;28;20025;-77
2022/05/12 11:44:24;;;;;;;14.98;3.15;;;;;;;25.82;29.69;101347.94;5070731;28;20030;-77
2022/05/12 11:47:17;;;;;;;12.07;2.53;;;;;;;26.09;29.50;101346.28;5072361;28;20032;-77
2022/05/12 11:50:07;;;;;;;6.28;1.83;;;;;;;26.46;29.18;101337.38;5070905;28;20033;-77
2022/05/12 11:52:51;;;;;;;6.15;2.00;;;;;;;26.53;29.34;101337.34;5072287;28;20483;-77